Bierset, Belgium

6:04 PM CEST on April 28, 2015 (GMT +0200)
Maastricht-Aachen | | Change Station
CLOSE
Current Station
Airport
Location: Maastricht,
Elevation: 374 ft
Nearby Weather Stations

Elev 374 ft 50.91 °N, 5.76 °E | Updated 9 minutes ago

Partly Cloudy
Partly Cloudy
54 °F
Feels Like 54 °F
N
10
Wind Variable Wind from West

Today
High -- | Low -- °F
--% Chance of Precip.
Yesterday
High -- | Low -- °F
Precip. -- in
6:19 AM 8:53 PM
Waxing Gibbous, 74% visible
Pressure 30.06 in
Visibility 6.2 miles
Clouds Few 5800 ft
Dew Point 27 °F
Humidity 35%
Rainfall 0.00 in
Snow Depth Not available.
UV 2 out of 12
Pollen Not available.
Air Quality Not available.
Flu Activity Not available.
METAR EHBK 281555Z AUTO 27009KT 210V320 9999 FEW058CB 12/M03 Q1018 NOSIG

More Conditions Fewer Conditions

Pressure 30.06 in
Visibility 6.2 miles
Clouds Few 5800 ft
Dew Point 27 °F
Humidity 35%
Rainfall 0.00 in
Snow Depth Not available.
UV 2 out of 12
Pollen Not available.
Air Quality Not available.
Flu Activity Not available.
METAR EHBK 281555Z AUTO 27009KT 210V320 9999 FEW058CB 12/M03 Q1018 NOSIG

More Conditions Fewer Conditions

10-Day Weather Forecast

Almanac

Astronomy

Apr. 28, 2015 Rise Set
Actual Time
Civil Twilight
Nautical Twilight
Astronomical Twilight
Moon
Length of Visible Light
Length of Day
Tomorrow will be .
, % of the Moon is Illuminated

Today's Extremes

Country Highs Country Lows

Community

WunderPhotos

Upload Photos

1,817,682 photos uploaded!

WunderBlogs® & News

Nearby

Air Quality

  Air Quality AQ Index Pollutant
Not available.

Snow Depth

Station Depth Elevation

Earthquake Activity

City Distance Mag. Time & Date
Minimum magnitude displayed is 2.5.

Coastal Water Temperatures

Place Temperature

Stations

Nearby Weather Stations

Station Location Temp. Windchill Dew Point Humidity Wind Precip. Elev Updated Type